Aviation Digital Data Service (ADDS)

Output produced by METARs form (2108 UTC 18 December 2018)
found at http://www.aviationweather.gov/metar/data/
 
METAR text: KYIP 182053Z 23006KT 10SM CLR 03/M04 A3018 RMK AO2 SLP227 T00281039 56017
Conditions at: KYIP (DETROIT/WILLOW , MI, US) observed 2053 UTC 18 December 2018
Temperature: 2.8°C (37°F)
Dewpoint: -3.9°C (25°F) [RH = 61%]
Pressure (altimeter): 30.18 inches Hg (1022.1 mb)
[Sea-level pressure: 1022.7 mb]
Winds: from the SW (230 degrees) at 7 MPH (6 knots; 3.1 m/s)
Visibility: 10 or more miles (16+ km)
Ceiling: at least 12,000 feet AGL
Clouds: sky clear below 12,000 feet AGL
Weather: no significant weather observed at this time

METAR text: KYIP 181953Z 23005KT 10SM CLR 03/M04 A3019 RMK AO2 SLP228 T00281039
Conditions at: KYIP (DETROIT/WILLOW , MI, US) observed 1953 UTC 18 December 2018
Temperature: 2.8°C (37°F)
Dewpoint: -3.9°C (25°F) [RH = 61%]
Pressure (altimeter): 30.19 inches Hg (1022.4 mb)
[Sea-level pressure: 1022.8 mb]
Winds: from the SW (230 degrees) at 6 MPH (5 knots; 2.6 m/s)
Visibility: 10 or more miles (16+ km)
Ceiling: at least 12,000 feet AGL
Clouds: sky clear below 12,000 feet AGL
Weather: no significant weather observed at this time

Forecast for: KYIP (DETROIT/WILLOW , MI, US)
Text: KYIP 181732Z 1818/1918 19005KT P6SM FEW200
Forecast period: 1800 UTC 18 December 2018 to 1400 UTC 19 December 2018
Forecast type: FROM: standard forecast or significant change
Winds: from the S (190 degrees) at 6 MPH (5 knots; 2.6 m/s)
Visibility: 6 or more miles 10+ km)
Ceiling: at least 12,000 feet AGL
Clouds: few clouds at 20000 feet AGL
Weather: no significant weather forecast for this period
Text: FM191400 20010KT P6SM BKN200
Forecast period: 1400 to 1800 UTC 19 December 2018
Forecast type: FROM: standard forecast or significant change
Winds: from the SSW (200 degrees) at 12 MPH (10 knots; 5.1 m/s)
Visibility: 6 or more miles 10+ km)
Ceiling: 20000 feet AGL
Clouds: broken clouds at 20000 feet AGL
Weather: no significant weather forecast for this period